sensor_id;sensor_type;location;lat;lon;timestamp;pressure;altitude;pressure_sealevel;temperature;humidity
7109;BME280;29079;41.930;25.558;2022-08-03T00:00:47;99445.06;;;23.06;51.81
7109;BME280;29079;41.930;25.558;2022-08-03T00:03:17;99431.41;;;23.13;51.78
7109;BME280;29079;41.930;25.558;2022-08-03T00:05:47;99433.53;;;23.04;51.90
7109;BME280;29079;41.930;25.558;2022-08-03T00:08:32;99441.47;;;23.12;51.76
7109;BME280;29079;41.930;25.558;2022-08-03T00:11:09;99440.84;;;23.10;51.97
7109;BME280;29079;41.930;25.558;2022-08-03T00:13:39;99443.19;;;23.00;52.16
7109;BME280;29079;41.930;25.558;2022-08-03T00:16:10;99432.59;;;22.92;52.48
7109;BME280;29079;41.930;25.558;2022-08-03T00:18:40;99438.16;;;23.04;52.43
7109;BME280;29079;41.930;25.558;2022-08-03T00:21:11;99443.38;;;23.05;52.28
7109;BME280;29079;41.930;25.558;2022-08-03T00:23:43;99441.09;;;23.02;52.26
7109;BME280;29079;41.930;25.558;2022-08-03T00:26:21;99441.47;;;23.06;52.47
7109;BME280;29079;41.930;25.558;2022-08-03T00:28:51;99435.66;;;23.02;52.42
7109;BME280;29079;41.930;25.558;2022-08-03T00:31:21;99430.31;;;22.89;52.57
7109;BME280;29079;41.930;25.558;2022-08-03T00:34:07;99432.59;;;22.92;52.82
7109;BME280;29079;41.930;25.558;2022-08-03T00:36:37;99425.00;;;23.01;52.68
7109;BME280;29079;41.930;25.558;2022-08-03T00:39:07;99421.72;;;22.92;52.69
7109;BME280;29079;41.930;25.558;2022-08-03T00:41:39;99416.97;;;22.81;53.04
7109;BME280;29079;41.930;25.558;2022-08-03T00:44:09;99423.44;;;22.80;53.06
7109;BME280;29079;41.930;25.558;2022-08-03T00:46:38;99423.66;;;22.78;53.40
7109;BME280;29079;41.930;25.558;2022-08-03T00:49:08;99415.28;;;22.80;53.13
7109;BME280;29079;41.930;25.558;2022-08-03T00:51:38;99423.31;;;22.68;53.44
7109;BME280;29079;41.930;25.558;2022-08-03T00:54:09;99427.66;;;22.75;53.21
7109;BME280;29079;41.930;25.558;2022-08-03T00:56:41;99428.44;;;22.83;53.04
7109;BME280;29079;41.930;25.558;2022-08-03T00:59:29;99432.75;;;22.65;53.69
7109;BME280;29079;41.930;25.558;2022-08-03T01:01:59;99433.59;;;22.66;53.58
7109;BME280;29079;41.930;25.558;2022-08-03T01:04:29;99438.97;;;22.72;53.37
7109;BME280;29079;41.930;25.558;2022-08-03T01:07:05;99442.13;;;22.76;53.26
7109;BME280;29079;41.930;25.558;2022-08-03T01:09:45;99437.75;;;22.68;53.57
7109;BME280;29079;41.930;25.558;2022-08-03T01:12:25;99433.81;;;22.64;53.65
7109;BME280;29079;41.930;25.558;2022-08-03T01:15:07;99426.28;;;22.59;53.81
7109;BME280;29079;41.930;25.558;2022-08-03T01:17:45;99438.63;;;22.62;53.75
7109;BME280;29079;41.930;25.558;2022-08-03T01:20:19;99435.50;;;22.58;53.88
7109;BME280;29079;41.930;25.558;2022-08-03T01:23:09;99431.13;;;22.51;53.65
7109;BME280;29079;41.930;25.558;2022-08-03T01:25:54;99437.66;;;22.50;53.98
7109;BME280;29079;41.930;25.558;2022-08-03T01:28:50;99441.78;;;22.59;53.60
7109;BME280;29079;41.930;25.558;2022-08-03T01:31:25;99444.28;;;22.60;53.50
7109;BME280;29079;41.930;25.558;2022-08-03T01:34:00;99441.78;;;22.52;53.42
7109;BME280;29079;41.930;25.558;2022-08-03T01:36:38;99444.34;;;22.47;53.95
7109;BME280;29079;41.930;25.558;2022-08-03T01:39:09;99440.63;;;22.35;54.14
7109;BME280;29079;41.930;25.558;2022-08-03T01:41:45;99442.72;;;22.26;54.68
7109;BME280;29079;41.930;25.558;2022-08-03T01:44:17;99435.63;;;22.25;54.09
7109;BME280;29079;41.930;25.558;2022-08-03T01:47:00;99417.66;;;22.17;54.10
7109;BME280;29079;41.930;25.558;2022-08-03T01:49:34;99454.84;;;22.30;54.44
7109;BME280;29079;41.930;25.558;2022-08-03T01:52:06;99454.84;;;22.37;54.30
7109;BME280;29079;41.930;25.558;2022-08-03T01:54:40;99456.31;;;22.33;54.47
7109;BME280;29079;41.930;25.558;2022-08-03T01:57:12;99459.44;;;22.36;54.33
7109;BME280;29079;41.930;25.558;2022-08-03T01:59:44;99458.47;;;22.11;55.06
7109;BME280;29079;41.930;25.558;2022-08-03T02:02:18;99462.63;;;22.13;55.00
7109;BME280;29079;41.930;25.558;2022-08-03T02:05:04;99462.84;;;22.12;55.08
7109;BME280;29079;41.930;25.558;2022-08-03T02:07:39;99464.75;;;21.98;55.57
7109;BME280;29079;41.930;25.558;2022-08-03T02:10:12;99461.84;;;21.92;55.71
7109;BME280;29079;41.930;25.558;2022-08-03T02:13:04;99461.63;;;21.94;55.72
7109;BME280;29079;41.930;25.558;2022-08-03T02:15:37;99456.78;;;22.03;55.51
7109;BME280;29079;41.930;25.558;2022-08-03T02:18:10;99455.97;;;21.96;55.89
7109;BME280;29079;41.930;25.558;2022-08-03T02:20:42;99457.44;;;21.98;55.55
7109;BME280;29079;41.930;25.558;2022-08-03T02:23:14;99460.38;;;21.97;55.61
7109;BME280;29079;41.930;25.558;2022-08-03T02:25:47;99463.31;;;21.95;55.55
7109;BME280;29079;41.930;25.558;2022-08-03T02:28:20;99462.69;;;21.80;55.83
7109;BME280;29079;41.930;25.558;2022-08-03T02:30:52;99455.97;;;21.96;55.55
7109;BME280;29079;41.930;25.558;2022-08-03T02:33:27;99456.63;;;21.91;55.67
7109;BME280;29079;41.930;25.558;2022-08-03T02:36:00;99467.09;;;21.81;55.96
7109;BME280;29079;41.930;25.558;2022-08-03T02:38:33;99450.81;;;21.67;56.19
7109;BME280;29079;41.930;25.558;2022-08-03T02:41:06;99457.47;;;21.78;55.86
7109;BME280;29079;41.930;25.558;2022-08-03T02:43:36;99461.47;;;21.76;56.15
7109;BME280;29079;41.930;25.558;2022-08-03T02:46:31;99464.84;;;21.51;56.81
7109;BME280;29079;41.930;25.558;2022-08-03T02:49:04;99462.53;;;21.61;56.57
7109;BME280;29079;41.930;25.558;2022-08-03T02:51:56;99462.50;;;21.68;56.57
7109;BME280;29079;41.930;25.558;2022-08-03T02:54:27;99465.84;;;21.56;56.55
7109;BME280;29079;41.930;25.558;2022-08-03T02:57:00;99454.97;;;21.36;56.99
7109;BME280;29079;41.930;25.558;2022-08-03T02:59:31;99469.16;;;21.32;57.36
7109;BME280;29079;41.930;25.558;2022-08-03T03:02:01;99465.00;;;21.36;57.03
7109;BME280;29079;41.930;25.558;2022-08-03T03:04:32;99465.00;;;21.43;57.09
7109;BME280;29079;41.930;25.558;2022-08-03T03:07:04;99476.25;;;21.46;56.96
7109;BME280;29079;41.930;25.558;2022-08-03T03:09:35;99472.50;;;21.40;57.11
7109;BME280;29079;41.930;25.558;2022-08-03T03:12:12;99468.13;;;21.19;57.65
7109;BME280;29079;41.930;25.558;2022-08-03T03:14:43;99462.91;;;21.31;57.21
7109;BME280;29079;41.930;25.558;2022-08-03T03:17:13;99478.97;;;21.33;57.21
7109;BME280;29079;41.930;25.558;2022-08-03T03:19:48;99484.19;;;21.21;57.44
7109;BME280;29079;41.930;25.558;2022-08-03T03:22:19;99481.25;;;21.22;57.32
7109;BME280;29079;41.930;25.558;2022-08-03T03:24:50;99482.53;;;21.13;57.55
7109;BME280;29079;41.930;25.558;2022-08-03T03:27:22;99487.50;;;21.10;57.73
7109;BME280;29079;41.930;25.558;2022-08-03T03:29:54;99488.59;;;21.22;57.42
7109;BME280;29079;41.930;25.558;2022-08-03T03:32:26;99492.09;;;21.16;57.51
7109;BME280;29079;41.930;25.558;2022-08-03T03:34:58;99488.78;;;21.20;57.41
7109;BME280;29079;41.930;25.558;2022-08-03T03:37:28;99490.03;;;21.25;57.34
7109;BME280;29079;41.930;25.558;2022-08-03T03:39:58;99490.84;;;21.18;57.63
7109;BME280;29079;41.930;25.558;2022-08-03T03:42:29;99495.50;;;21.38;57.22
7109;BME280;29079;41.930;25.558;2022-08-03T03:45:02;99489.63;;;21.34;57.07
7109;BME280;29079;41.930;25.558;2022-08-03T03:47:33;99504.69;;;21.44;56.77
7109;BME280;29079;41.930;25.558;2022-08-03T03:50:05;99514.53;;;21.51;56.92
7109;BME280;29079;41.930;25.558;2022-08-03T03:52:35;99514.13;;;21.61;56.55
7109;BME280;29079;41.930;25.558;2022-08-03T03:55:06;99512.44;;;21.67;56.36
7109;BME280;29079;41.930;25.558;2022-08-03T03:57:36;99517.03;;;21.73;56.19
7109;BME280;29079;41.930;25.558;2022-08-03T04:00:07;99514.94;;;21.75;56.17
7109;BME280;29079;41.930;25.558;2022-08-03T04:02:38;99514.09;;;21.74;56.57
7109;BME280;29079;41.930;25.558;2022-08-03T04:05:09;99511.78;;;21.85;56.33
7109;BME280;29079;41.930;25.558;2022-08-03T04:07:58;99521.00;;;21.77;56.51
7109;BME280;29079;41.930;25.558;2022-08-03T04:10:54;99515.75;;;21.62;56.87
7109;BME280;29079;41.930;25.558;2022-08-03T04:13:30;99519.75;;;21.73;56.89
7109;BME280;29079;41.930;25.558;2022-08-03T04:16:03;99518.25;;;21.84;56.72
7109;BME280;29079;41.930;25.558;2022-08-03T04:18:34;99523.69;;;21.97;56.48
7109;BME280;29079;41.930;25.558;2022-08-03T04:21:11;99520.16;;;21.90;56.63
7109;BME280;29079;41.930;25.558;2022-08-03T04:23:46;99516.19;;;21.79;57.09
7109;BME280;29079;41.930;25.558;2022-08-03T04:26:18;99522.22;;;21.81;57.07
7109;BME280;29079;41.930;25.558;2022-08-03T04:28:52;99517.22;;;21.85;57.34
7109;BME280;29079;41.930;25.558;2022-08-03T04:31:23;99525.16;;;21.93;57.09
7109;BME280;29079;41.930;25.558;2022-08-03T04:33:54;99526.41;;;21.90;57.40
7109;BME280;29079;41.930;25.558;2022-08-03T04:36:30;99528.91;;;22.05;57.01
7109;BME280;29079;41.930;25.558;2022-08-03T04:39:04;99531.84;;;22.11;56.91
7109;BME280;29079;41.930;25.558;2022-08-03T04:41:35;99534.38;;;21.99;57.50
7109;BME280;29079;41.930;25.558;2022-08-03T04:44:28;99535.38;;;22.18;57.21
7109;BME280;29079;41.930;25.558;2022-08-03T04:47:01;99528.25;;;22.23;57.05
7109;BME280;29079;41.930;25.558;2022-08-03T04:49:31;99537.44;;;22.36;56.63
7109;BME280;29079;41.930;25.558;2022-08-03T04:52:03;99536.78;;;22.40;56.92
7109;BME280;29079;41.930;25.558;2022-08-03T04:54:38;99540.16;;;22.42;57.31
7109;BME280;29079;41.930;25.558;2022-08-03T04:57:09;99543.25;;;22.53;57.22
7109;BME280;29079;41.930;25.558;2022-08-03T04:59:51;99542.78;;;22.69;57.19
7109;BME280;29079;41.930;25.558;2022-08-03T05:02:30;99541.66;;;22.84;56.71
7109;BME280;29079;41.930;25.558;2022-08-03T05:05:01;99545.63;;;22.88;57.00
7109;BME280;29079;41.930;25.558;2022-08-03T05:07:32;99547.47;;;22.94;57.19
7109;BME280;29079;41.930;25.558;2022-08-03T05:10:06;99550.84;;;22.96;57.35
7109;BME280;29079;41.930;25.558;2022-08-03T05:12:44;99545.31;;;23.09;57.19
7109;BME280;29079;41.930;25.558;2022-08-03T05:15:15;99547.84;;;23.11;56.92
7109;BME280;29079;41.930;25.558;2022-08-03T05:17:45;99552.59;;;23.22;57.20
7109;BME280;29079;41.930;25.558;2022-08-03T05:20:15;99554.44;;;23.28;56.60
7109;BME280;29079;41.930;25.558;2022-08-03T05:22:48;99552.31;;;23.30;56.65
7109;BME280;29079;41.930;25.558;2022-08-03T05:25:18;99553.75;;;23.40;56.32
7109;BME280;29079;41.930;25.558;2022-08-03T05:27:54;99556.31;;;23.60;55.77
7109;BME280;29079;41.930;25.558;2022-08-03T05:30:25;99551.31;;;23.57;56.19
7109;BME280;29079;41.930;25.558;2022-08-03T05:33:02;99564.28;;;23.61;56.08
7109;BME280;29079;41.930;25.558;2022-08-03T05:35:32;99555.81;;;23.70;55.90
7109;BME280;29079;41.930;25.558;2022-08-03T05:38:25;99560.19;;;23.77;55.92
7109;BME280;29079;41.930;25.558;2022-08-03T05:41:03;99565.31;;;23.92;55.71
7109;BME280;29079;41.930;25.558;2022-08-03T05:43:52;99556.72;;;24.14;55.08
7109;BME280;29079;41.930;25.558;2022-08-03T05:46:22;99568.78;;;24.25;55.02
7109;BME280;29079;41.930;25.558;2022-08-03T05:48:52;99569.53;;;24.32;54.98
7109;BME280;29079;41.930;25.558;2022-08-03T05:51:23;99565.84;;;24.45;54.97
7109;BME280;29079;41.930;25.558;2022-08-03T05:53:55;99564.56;;;24.47;54.89
7109;BME280;29079;41.930;25.558;2022-08-03T05:56:28;99570.16;;;24.52;55.25
7109;BME280;29079;41.930;25.558;2022-08-03T05:59:01;99554.88;;;24.51;55.31
7109;BME280;29079;41.930;25.558;2022-08-03T06:01:52;99560.66;;;24.62;55.00
7109;BME280;29079;41.930;25.558;2022-08-03T06:04:23;99575.06;;;24.69;55.66
7109;BME280;29079;41.930;25.558;2022-08-03T06:06:54;99545.03;;;24.50;56.00
7109;BME280;29079;41.930;25.558;2022-08-03T06:09:26;99578.53;;;24.76;56.10
7109;BME280;29079;41.930;25.558;2022-08-03T06:12:17;99582.56;;;24.74;55.52
7109;BME280;29079;41.930;25.558;2022-08-03T06:14:48;99582.84;;;24.84;55.36
7109;BME280;29079;41.930;25.558;2022-08-03T06:17:22;99588.59;;;24.94;55.46
7109;BME280;29079;41.930;25.558;2022-08-03T06:20:06;99577.31;;;24.91;55.62
7109;BME280;29079;41.930;25.558;2022-08-03T06:22:43;99582.31;;;24.94;55.92
7109;BME280;29079;41.930;25.558;2022-08-03T06:25:20;99585.56;;;25.02;56.04
7109;BME280;29079;41.930;25.558;2022-08-03T06:27:54;99590.88;;;24.97;55.93
7109;BME280;29079;41.930;25.558;2022-08-03T06:30:24;99591.78;;;25.10;55.46
7109;BME280;29079;41.930;25.558;2022-08-03T06:32:54;99595.00;;;25.18;55.19
7109;BME280;29079;41.930;25.558;2022-08-03T06:35:26;99594.03;;;25.31;54.78
7109;BME280;29079;41.930;25.558;2022-08-03T06:37:59;99588.00;;;25.41;54.29
7109;BME280;29079;41.930;25.558;2022-08-03T06:40:34;99581.94;;;25.39;53.70
7109;BME280;29079;41.930;25.558;2022-08-03T06:43:08;99587.53;;;25.44;52.61
7109;BME280;29079;41.930;25.558;2022-08-03T06:45:43;99580.16;;;25.33;52.63
7109;BME280;29079;41.930;25.558;2022-08-03T06:48:15;99584.44;;;25.41;52.97
7109;BME280;29079;41.930;25.558;2022-08-03T06:50:46;99587.81;;;25.24;52.91
7109;BME280;29079;41.930;25.558;2022-08-03T06:53:16;99586.44;;;25.33;52.41
7109;BME280;29079;41.930;25.558;2022-08-03T06:55:57;99586.28;;;25.70;51.53
7109;BME280;29079;41.930;25.558;2022-08-03T06:58:28;99587.16;;;25.95;48.24
7109;BME280;29079;41.930;25.558;2022-08-03T07:00:59;99583.69;;;25.87;48.56
7109;BME280;29079;41.930;25.558;2022-08-03T07:03:31;99592.47;;;25.78;47.63
7109;BME280;29079;41.930;25.558;2022-08-03T07:06:03;99588.19;;;25.70;47.11
7109;BME280;29079;41.930;25.558;2022-08-03T07:08:33;99592.28;;;25.79;47.05
7109;BME280;29079;41.930;25.558;2022-08-03T07:11:05;99594.75;;;25.81;46.48
7109;BME280;29079;41.930;25.558;2022-08-03T07:13:39;99569.69;;;25.72;45.11
7109;BME280;29079;41.930;25.558;2022-08-03T07:16:11;99600.38;;;26.10;46.30
7109;BME280;29079;41.930;25.558;2022-08-03T07:18:42;99584.84;;;26.22;45.95
7109;BME280;29079;41.930;25.558;2022-08-03T07:21:12;99595.28;;;26.25;43.82
7109;BME280;29079;41.930;25.558;2022-08-03T07:23:45;99592.47;;;26.20;43.75
7109;BME280;29079;41.930;25.558;2022-08-03T07:26:20;99589.22;;;26.35;43.88
7109;BME280;29079;41.930;25.558;2022-08-03T07:28:52;99588.16;;;26.24;44.10
7109;BME280;29079;41.930;25.558;2022-08-03T07:31:23;99596.25;;;26.31;44.62
7109;BME280;29079;41.930;25.558;2022-08-03T07:33:54;99599.09;;;26.24;44.78
7109;BME280;29079;41.930;25.558;2022-08-03T07:36:28;99590.28;;;26.34;45.78
7109;BME280;29079;41.930;25.558;2022-08-03T07:39:02;99595.03;;;26.50;45.38
7109;BME280;29079;41.930;25.558;2022-08-03T07:41:48;99589.81;;;26.61;45.23
7109;BME280;29079;41.930;25.558;2022-08-03T07:44:23;99590.50;;;26.68;44.72
7109;BME280;29079;41.930;25.558;2022-08-03T07:46:53;99594.31;;;26.67;44.07
7109;BME280;29079;41.930;25.558;2022-08-03T07:49:31;99583.84;;;26.64;44.19
7109;BME280;29079;41.930;25.558;2022-08-03T07:52:02;99585.66;;;26.70;44.23
7109;BME280;29079;41.930;25.558;2022-08-03T07:54:57;99582.16;;;26.86;43.52
7109;BME280;29079;41.930;25.558;2022-08-03T07:57:29;99585.50;;;26.88;44.08
7109;BME280;29079;41.930;25.558;2022-08-03T08:00:01;99586.66;;;26.92;43.51
7109;BME280;29079;41.930;25.558;2022-08-03T08:02:32;99587.75;;;26.91;42.79
7109;BME280;29079;41.930;25.558;2022-08-03T08:05:03;99591.50;;;27.02;42.49
7109;BME280;29079;41.930;25.558;2022-08-03T08:07:34;99594.34;;;27.07;41.24
7109;BME280;29079;41.930;25.558;2022-08-03T08:10:05;99601.72;;;27.19;42.13
7109;BME280;29079;41.930;25.558;2022-08-03T08:12:38;99593.06;;;27.27;40.13
7109;BME280;29079;41.930;25.558;2022-08-03T08:15:10;99594.81;;;27.45;40.31
7109;BME280;29079;41.930;25.558;2022-08-03T08:17:46;99593.00;;;27.51;39.55
7109;BME280;29079;41.930;25.558;2022-08-03T08:20:18;99594.00;;;27.33;39.45
7109;BME280;29079;41.930;25.558;2022-08-03T08:22:57;99591.72;;;27.41;39.91
7109;BME280;29079;41.930;25.558;2022-08-03T08:25:49;99585.88;;;27.50;39.47
7109;BME280;29079;41.930;25.558;2022-08-03T08:28:23;99586.19;;;27.53;40.25
7109;BME280;29079;41.930;25.558;2022-08-03T08:31:01;99570.84;;;27.52;40.98
7109;BME280;29079;41.930;25.558;2022-08-03T08:33:32;99578.31;;;27.57;41.01
7109;BME280;29079;41.930;25.558;2022-08-03T08:36:24;99542.09;;;27.55;40.26
7109;BME280;29079;41.930;25.558;2022-08-03T08:38:55;99577.41;;;27.85;39.75
7109;BME280;29079;41.930;25.558;2022-08-03T08:41:25;99576.25;;;27.81;39.74
7109;BME280;29079;41.930;25.558;2022-08-03T08:44:03;99570.59;;;27.71;39.94
7109;BME280;29079;41.930;25.558;2022-08-03T08:46:37;99573.06;;;27.72;39.77
7109;BME280;29079;41.930;25.558;2022-08-03T08:49:09;99581.00;;;27.86;40.01
7109;BME280;29079;41.930;25.558;2022-08-03T08:51:42;99575.06;;;27.94;40.71
7109;BME280;29079;41.930;25.558;2022-08-03T08:54:30;99575.94;;;27.94;39.79
7109;BME280;29079;41.930;25.558;2022-08-03T08:57:02;99584.84;;;28.02;38.77
7109;BME280;29079;41.930;25.558;2022-08-03T08:59:56;99579.63;;;28.00;39.52
7109;BME280;29079;41.930;25.558;2022-08-03T09:02:28;99573.13;;;28.06;38.75
7109;BME280;29079;41.930;25.558;2022-08-03T09:05:01;99573.38;;;28.05;39.28
7109;BME280;29079;41.930;25.558;2022-08-03T09:07:43;99550.94;;;28.08;39.06
7109;BME280;29079;41.930;25.558;2022-08-03T09:10:16;99566.09;;;28.33;38.52
7109;BME280;29079;41.930;25.558;2022-08-03T09:12:51;99556.16;;;28.26;38.75
7109;BME280;29079;41.930;25.558;2022-08-03T09:15:26;99549.50;;;28.05;38.52
7109;BME280;29079;41.930;25.558;2022-08-03T09:18:00;99554.97;;;28.22;38.39
7109;BME280;29079;41.930;25.558;2022-08-03T09:20:32;99559.31;;;28.18;39.06
7109;BME280;29079;41.930;25.558;2022-08-03T09:23:06;99559.31;;;28.18;38.35
7109;BME280;29079;41.930;25.558;2022-08-03T09:26:00;99551.59;;;28.15;38.38
7109;BME280;29079;41.930;25.558;2022-08-03T09:28:34;99559.44;;;28.28;39.08
7109;BME280;29079;41.930;25.558;2022-08-03T09:31:37;99549.34;;;28.12;39.54
7109;BME280;29079;41.930;25.558;2022-08-03T09:34:12;99548.69;;;28.05;38.72
7109;BME280;29079;41.930;25.558;2022-08-03T09:36:44;99540.88;;;28.13;38.71
7109;BME280;29079;41.930;25.558;2022-08-03T09:39:16;99542.69;;;28.25;38.89
7109;BME280;29079;41.930;25.558;2022-08-03T09:42:11;99545.50;;;28.52;38.54
7109;BME280;29079;41.930;25.558;2022-08-03T09:44:44;99545.22;;;28.54;37.62
7109;BME280;29079;41.930;25.558;2022-08-03T09:47:25;99547.13;;;28.48;37.73
7109;BME280;29079;41.930;25.558;2022-08-03T09:50:05;99538.63;;;28.49;37.10
7109;BME280;29079;41.930;25.558;2022-08-03T09:52:39;99542.56;;;28.59;37.31
7109;BME280;29079;41.930;25.558;2022-08-03T09:55:20;99535.78;;;28.61;36.80
7109;BME280;29079;41.930;25.558;2022-08-03T09:58:13;99535.47;;;28.80;36.50
7109;BME280;29079;41.930;25.558;2022-08-03T10:00:56;99532.75;;;28.85;36.61
7109;BME280;29079;41.930;25.558;2022-08-03T10:03:30;99521.03;;;28.68;37.77
7109;BME280;29079;41.930;25.558;2022-08-03T10:06:13;99527.06;;;28.70;37.59
7109;BME280;29079;41.930;25.558;2022-08-03T10:08:45;99516.44;;;28.73;36.67
7109;BME280;29079;41.930;25.558;2022-08-03T10:11:28;99508.97;;;28.69;36.77
7109;BME280;29079;41.930;25.558;2022-08-03T10:14:01;99522.53;;;28.58;37.11
7109;BME280;29079;41.930;25.558;2022-08-03T10:16:34;99517.13;;;28.63;37.59
7109;BME280;29079;41.930;25.558;2022-08-03T10:19:07;99504.28;;;28.69;37.66
7109;BME280;29079;41.930;25.558;2022-08-03T10:21:46;99504.88;;;28.71;37.33
7109;BME280;29079;41.930;25.558;2022-08-03T10:24:23;99512.22;;;28.65;37.36
7109;BME280;29079;41.930;25.558;2022-08-03T10:26:59;99512.28;;;28.71;37.11
7109;BME280;29079;41.930;25.558;2022-08-03T10:29:36;99510.31;;;28.66;37.85
7109;BME280;29079;41.930;25.558;2022-08-03T10:32:12;99507.81;;;28.64;37.57
7109;BME280;29079;41.930;25.558;2022-08-03T10:34:49;99506.38;;;28.84;37.05
7109;BME280;29079;41.930;25.558;2022-08-03T10:37:29;99497.13;;;28.90;37.32
7109;BME280;29079;41.930;25.558;2022-08-03T10:40:02;99495.28;;;28.74;38.16
7109;BME280;29079;41.930;25.558;2022-08-03T10:42:34;99503.88;;;28.82;36.97
7109;BME280;29079;41.930;25.558;2022-08-03T10:45:06;99497.47;;;28.72;36.60
7109;BME280;29079;41.930;25.558;2022-08-03T10:47:39;99501.63;;;28.74;36.52
7109;BME280;29079;41.930;25.558;2022-08-03T10:50:12;99497.13;;;28.46;38.42
7109;BME280;29079;41.930;25.558;2022-08-03T10:52:55;99497.38;;;28.44;37.85
7109;BME280;29079;41.930;25.558;2022-08-03T10:55:31;99489.94;;;28.62;37.86
7109;BME280;29079;41.930;25.558;2022-08-03T10:58:47;99492.72;;;28.89;37.18
7109;BME280;29079;41.930;25.558;2022-08-03T11:01:51;99479.34;;;28.98;36.95
7109;BME280;29079;41.930;25.558;2022-08-03T11:04:31;99484.28;;;29.23;36.22
7109;BME280;29079;41.930;25.558;2022-08-03T11:07:22;99477.16;;;29.22;36.17
7109;BME280;29079;41.930;25.558;2022-08-03T11:09:54;99467.47;;;29.20;35.59
7109;BME280;29079;41.930;25.558;2022-08-03T11:12:27;99477.88;;;29.17;36.73
7109;BME280;29079;41.930;25.558;2022-08-03T11:15:02;99475.84;;;29.35;36.68
7109;BME280;29079;41.930;25.558;2022-08-03T11:17:36;99476.88;;;29.56;34.48
7109;BME280;29079;41.930;25.558;2022-08-03T11:20:45;99466.28;;;29.38;35.74
7109;BME280;29079;41.930;25.558;2022-08-03T11:23:38;99468.16;;;29.32;35.28
7109;BME280;29079;41.930;25.558;2022-08-03T11:26:33;99469.47;;;29.24;36.86
7109;BME280;29079;41.930;25.558;2022-08-03T11:29:25;99470.16;;;29.14;36.22
7109;BME280;29079;41.930;25.558;2022-08-03T11:31:57;99467.03;;;29.00;37.02
7109;BME280;29079;41.930;25.558;2022-08-03T11:34:29;99458.19;;;28.98;35.99
7109;BME280;29079;41.930;25.558;2022-08-03T11:37:20;99455.34;;;28.88;36.12
7109;BME280;29079;41.930;25.558;2022-08-03T11:40:32;99452.06;;;28.91;36.69
7109;BME280;29079;41.930;25.558;2022-08-03T11:43:05;99461.44;;;28.90;37.21
7109;BME280;29079;41.930;25.558;2022-08-03T11:45:38;99446.69;;;29.01;36.79
7109;BME280;29079;41.930;25.558;2022-08-03T11:48:27;99440.97;;;29.35;35.28
7109;BME280;29079;41.930;25.558;2022-08-03T11:51:18;99448.16;;;29.42;36.13
7109;BME280;29079;41.930;25.558;2022-08-03T11:53:53;99443.22;;;29.44;36.42
7109;BME280;29079;41.930;25.558;2022-08-03T11:56:28;99440.78;;;29.47;36.18
7109;BME280;29079;41.930;25.558;2022-08-03T11:59:12;99430.09;;;29.51;36.40
7109;BME280;29079;41.930;25.558;2022-08-03T12:01:50;99436.13;;;29.48;35.92
7109;BME280;29079;41.930;25.558;2022-08-03T12:04:21;99441.78;;;29.31;35.70
7109;BME280;29079;41.930;25.558;2022-08-03T12:06:59;99435.97;;;29.27;34.57
7109;BME280;29079;41.930;25.558;2022-08-03T12:09:29;99436.03;;;29.05;37.14
7109;BME280;29079;41.930;25.558;2022-08-03T12:12:04;99418.88;;;28.93;37.74
7109;BME280;29079;41.930;25.558;2022-08-03T12:14:37;99425.47;;;28.92;37.19
7109;BME280;29079;41.930;25.558;2022-08-03T12:17:20;99421.22;;;28.79;37.57
7109;BME280;29079;41.930;25.558;2022-08-03T12:19:52;99410.53;;;28.82;35.97
7109;BME280;29079;41.930;25.558;2022-08-03T12:22:30;99401.78;;;28.86;35.67
7109;BME280;29079;41.930;25.558;2022-08-03T12:25:01;99408.13;;;28.91;35.68
7109;BME280;29079;41.930;25.558;2022-08-03T12:27:36;99411.84;;;29.07;35.29
7109;BME280;29079;41.930;25.558;2022-08-03T12:30:12;99411.50;;;28.98;36.76
7109;BME280;29079;41.930;25.558;2022-08-03T12:32:43;99398.34;;;29.00;36.56
7109;BME280;29079;41.930;25.558;2022-08-03T12:35:21;99397.09;;;29.13;35.84
7109;BME280;29079;41.930;25.558;2022-08-03T12:37:54;99399.69;;;29.25;36.09
7109;BME280;29079;41.930;25.558;2022-08-03T12:40:28;99391.88;;;29.17;36.26
7109;BME280;29079;41.930;25.558;2022-08-03T12:43:13;99388.44;;;29.27;34.68
7109;BME280;29079;41.930;25.558;2022-08-03T12:45:45;99401.22;;;29.48;35.13
7109;BME280;29079;41.930;25.558;2022-08-03T12:48:16;99386.81;;;29.31;34.75
7109;BME280;29079;41.930;25.558;2022-08-03T12:50:51;99396.75;;;29.37;35.11
7109;BME280;29079;41.930;25.558;2022-08-03T12:53:27;99398.47;;;29.16;36.34
7109;BME280;29079;41.930;25.558;2022-08-03T12:56:01;99398.19;;;29.17;35.44
7109;BME280;29079;41.930;25.558;2022-08-03T12:58:38;99402.88;;;29.17;35.23
7109;BME280;29079;41.930;25.558;2022-08-03T13:01:09;99405.00;;;29.05;35.91
7109;BME280;29079;41.930;25.558;2022-08-03T13:03:43;99408.72;;;28.93;36.06
7109;BME280;29079;41.930;25.558;2022-08-03T13:06:23;99405.13;;;28.93;35.41
7109;BME280;29079;41.930;25.558;2022-08-03T13:09:04;99403.50;;;28.92;35.49
7109;BME280;29079;41.930;25.558;2022-08-03T13:11:35;99405.03;;;28.82;36.10
7109;BME280;29079;41.930;25.558;2022-08-03T13:14:27;99415.22;;;28.82;35.85
7109;BME280;29079;41.930;25.558;2022-08-03T13:16:58;99411.78;;;28.70;36.84
7109;BME280;29079;41.930;25.558;2022-08-03T13:19:31;99415.50;;;28.58;37.18
7109;BME280;29079;41.930;25.558;2022-08-03T13:22:10;99414.59;;;28.53;36.83
7109;BME280;29079;41.930;25.558;2022-08-03T13:24:42;99415.69;;;28.52;37.65
7109;BME280;29079;41.930;25.558;2022-08-03T13:27:14;99411.25;;;28.51;37.31
7109;BME280;29079;41.930;25.558;2022-08-03T13:30:21;99424.34;;;28.43;37.45
7109;BME280;29079;41.930;25.558;2022-08-03T13:32:58;99421.50;;;28.55;36.96
7109;BME280;29079;41.930;25.558;2022-08-03T13:35:29;99423.41;;;28.55;37.69
7109;BME280;29079;41.930;25.558;2022-08-03T13:37:59;99425.22;;;28.44;38.11
7109;BME280;29079;41.930;25.558;2022-08-03T13:40:30;99404.09;;;28.22;38.96
7109;BME280;29079;41.930;25.558;2022-08-03T13:43:09;99418.06;;;28.43;38.97
7109;BME280;29079;41.930;25.558;2022-08-03T13:45:46;99415.50;;;28.36;38.88